createdAt,value
2022-08-17T00:00:42.757Z,53.62
2022-08-17T00:03:14.512Z,53.48
2022-08-17T00:05:50.670Z,53.25
2022-08-17T00:08:22.890Z,53.63
2022-08-17T00:10:51.434Z,53.59
2022-08-17T00:13:32.930Z,53.39
2022-08-17T00:16:12.175Z,53.56
2022-08-17T00:18:53.894Z,53.60
2022-08-17T00:22:29.989Z,53.87
2022-08-17T00:24:16.389Z,53.83
2022-08-17T00:30:53.869Z,53.98
2022-08-17T00:33:30.684Z,53.79
2022-08-17T00:39:57.974Z,54.14
2022-08-17T00:42:30.354Z,53.87
2022-08-17T00:44:58.819Z,53.98
2022-08-17T00:47:26.372Z,54.35
2022-08-17T00:49:53.651Z,54.41
2022-08-17T00:52:30.213Z,54.34
2022-08-17T00:54:59.095Z,54.60
2022-08-17T00:57:42.165Z,54.58
2022-08-17T01:00:26.112Z,54.74
2022-08-17T01:03:02.353Z,54.91
2022-08-17T01:05:34.119Z,55.00
2022-08-17T01:08:02.771Z,54.81
2022-08-17T01:10:58.416Z,54.99
2022-08-17T01:13:30.764Z,55.01
2022-08-17T01:19:57.778Z,54.48
2022-08-17T01:22:26.089Z,54.98
2022-08-17T01:25:00.796Z,55.07
2022-08-17T01:27:29.202Z,55.30
2022-08-17T01:30:05.374Z,55.22
2022-08-17T01:32:52.568Z,55.48
2022-08-17T01:35:20.190Z,55.21
2022-08-17T01:37:47.416Z,55.22
2022-08-17T01:40:35.225Z,55.47
2022-08-17T01:43:14.664Z,55.22
2022-08-17T01:45:47.904Z,55.38
2022-08-17T01:48:36.592Z,55.48
2022-08-17T01:51:06.949Z,55.41
2022-08-17T01:53:44.442Z,55.38
2022-08-17T01:56:17.124Z,55.44
2022-08-17T01:58:46.017Z,55.41
2022-08-17T02:01:15.728Z,55.66
2022-08-17T02:03:53.455Z,55.71
2022-08-17T02:06:43.954Z,55.46
2022-08-17T02:09:17.070Z,55.24
2022-08-17T02:11:46.292Z,55.28
2022-08-17T02:14:14.461Z,55.52
2022-08-17T02:16:42.144Z,55.66
2022-08-17T02:19:15.767Z,55.54
2022-08-17T02:21:48.313Z,55.56
2022-08-17T02:24:58.909Z,55.50
2022-08-17T02:27:19.558Z,55.73
2022-08-17T02:29:46.757Z,55.88
2022-08-17T02:32:28.045Z,55.93
2022-08-17T02:35:01.295Z,55.86
2022-08-17T02:37:30.389Z,56.05
2022-08-17T02:39:58.988Z,56.16
2022-08-17T02:42:40.489Z,56.67
2022-08-17T02:49:17.230Z,56.39
2022-08-17T02:51:44.519Z,56.60
2022-08-17T02:54:40.471Z,56.44
2022-08-17T02:56:59.022Z,56.56
2022-08-17T02:59:26.302Z,56.70
2022-08-17T03:01:53.635Z,56.54
2022-08-17T03:04:20.996Z,56.43
2022-08-17T03:06:48.445Z,56.54
2022-08-17T03:09:15.633Z,56.66
2022-08-17T03:11:43.372Z,56.67
2022-08-17T03:14:10.693Z,56.18
2022-08-17T03:16:37.919Z,56.11
2022-08-17T03:19:06.471Z,56.31
2022-08-17T03:25:37.276Z,56.91
2022-08-17T03:28:07.030Z,56.87
2022-08-17T03:34:44.281Z,56.71
2022-08-17T03:37:11.466Z,56.87
2022-08-17T03:39:39.145Z,56.60
2022-08-17T03:42:32.331Z,56.55
2022-08-17T03:45:16.685Z,56.57
2022-08-17T03:47:44.124Z,56.76
2022-08-17T03:54:21.313Z,56.87
2022-08-17T04:06:07.439Z,56.91
2022-08-17T04:08:34.757Z,56.51
2022-08-17T04:15:12.664Z,56.92
2022-08-17T04:17:40.627Z,57.28
2022-08-17T04:23:50.145Z,57.21
2022-08-17T04:26:52.170Z,57.10
2022-08-17T04:33:07.100Z,57.48
2022-08-17T04:35:43.831Z,57.38
2022-08-17T04:38:19.072Z,57.46
2022-08-17T04:40:47.408Z,57.72
2022-08-17T04:43:19.018Z,57.64
2022-08-17T04:45:54.871Z,57.59
2022-08-17T04:59:47.868Z,58.02
2022-08-17T05:02:15.562Z,57.87
2022-08-17T05:04:43.222Z,58.07
2022-08-17T05:10:52.598Z,58.33
2022-08-17T05:17:07.363Z,58.62
2022-08-17T05:19:38.962Z,58.48
2022-08-17T05:22:06.830Z,58.56
2022-08-17T05:24:42.660Z,58.58
2022-08-17T05:27:15.080Z,58.59
2022-08-17T05:29:46.673Z,58.26
2022-08-17T05:32:39.691Z,58.14
2022-08-17T05:35:02.485Z,58.50
2022-08-17T05:37:30.154Z,58.55
2022-08-17T05:39:57.812Z,58.43
2022-08-17T05:42:36.034Z,58.61
2022-08-17T05:45:10.618Z,58.71
2022-08-17T05:47:39.843Z,58.56
2022-08-17T05:50:10.180Z,58.80
2022-08-17T05:53:02.697Z,58.79
2022-08-17T05:59:35.327Z,58.93
2022-08-17T06:02:28.692Z,59.13
2022-08-17T06:05:02.291Z,59.00
2022-08-17T06:08:08.922Z,59.08
2022-08-17T06:10:42.747Z,59.03
2022-08-17T06:13:25.305Z,59.08
2022-08-17T06:20:00.328Z,58.89
2022-08-17T06:22:33.479Z,58.81
2022-08-17T06:29:23.611Z,59.14
2022-08-17T06:31:50.934Z,58.91
2022-08-17T06:34:18.177Z,59.00
2022-08-17T06:37:20.282Z,59.45
2022-08-17T06:40:05.380Z,59.53
2022-08-17T06:43:11.807Z,59.31
2022-08-17T06:46:06.379Z,59.24
2022-08-17T06:48:58.834Z,59.34
2022-08-17T06:51:37.966Z,59.06
2022-08-17T06:54:13.290Z,58.74
2022-08-17T06:56:55.579Z,58.97
2022-08-17T06:59:36.379Z,58.93
2022-08-17T07:02:52.768Z,59.14
2022-08-17T07:05:35.623Z,59.03
2022-08-17T07:08:39.409Z,58.87
2022-08-17T07:11:31.790Z,58.86
2022-08-17T07:14:17.900Z,58.60
2022-08-17T07:16:58.279Z,57.80
2022-08-17T07:19:33.020Z,57.01
2022-08-17T07:22:05.814Z,56.84
2022-08-17T07:24:57.309Z,56.34
2022-08-17T07:27:32.886Z,56.27
2022-08-17T07:30:10.690Z,55.99
2022-08-17T07:32:44.261Z,56.19
2022-08-17T07:35:40.800Z,56.55
2022-08-17T07:38:26.305Z,55.82
2022-08-17T07:40:57.350Z,55.72
2022-08-17T07:43:39.974Z,56.19
2022-08-17T07:46:22.718Z,55.55
2022-08-17T07:48:55.171Z,55.62
2022-08-17T07:51:34.631Z,55.33
2022-08-17T07:54:21.660Z,55.03
2022-08-17T07:56:55.134Z,53.96
2022-08-17T07:59:39.064Z,53.62
2022-08-17T08:02:28.970Z,53.76
2022-08-17T08:05:31.723Z,52.72
2022-08-17T08:08:43.655Z,52.17
2022-08-17T08:11:29.998Z,52.45
2022-08-17T08:14:28.603Z,52.28
2022-08-17T08:17:02.950Z,51.49
2022-08-17T08:19:33.271Z,51.52
2022-08-17T08:22:11.403Z,50.88
2022-08-17T08:25:19.291Z,51.45
2022-08-17T08:28:16.208Z,51.35
2022-08-17T08:31:42.859Z,50.79
2022-08-17T08:35:02.218Z,50.50
2022-08-17T08:38:01.745Z,49.21
2022-08-17T08:41:07.928Z,49.50
2022-08-17T08:43:52.250Z,49.87
2022-08-17T08:46:55.933Z,48.32
2022-08-17T08:50:03.297Z,47.25
2022-08-17T08:53:11.867Z,46.28
2022-08-17T08:56:06.703Z,45.22
2022-08-17T08:58:54.245Z,44.54
2022-08-17T09:01:57.372Z,44.66
2022-08-17T09:05:13.973Z,43.39
2022-08-17T09:08:21.598Z,43.47
2022-08-17T09:11:19.477Z,42.42
2022-08-17T09:14:43.064Z,43.45
2022-08-17T09:17:19.340Z,42.93
2022-08-17T09:20:14.417Z,42.57
2022-08-17T09:23:41.631Z,42.99
2022-08-17T09:26:29.654Z,43.03
2022-08-17T09:29:06.397Z,42.73
2022-08-17T09:31:49.714Z,42.28
2022-08-17T09:34:31.885Z,42.35
2022-08-17T09:37:26.160Z,42.22
2022-08-17T09:40:14.433Z,42.12
2022-08-17T09:43:16.432Z,42.80
2022-08-17T09:46:14.288Z,42.25
2022-08-17T09:49:06.822Z,41.42
2022-08-17T09:51:42.917Z,41.26
2022-08-17T09:54:41.153Z,41.34
2022-08-17T09:57:43.943Z,40.86
2022-08-17T10:00:20.135Z,41.27
2022-08-17T10:03:40.893Z,40.18
2022-08-17T10:06:24.853Z,40.35
2022-08-17T10:09:17.312Z,39.84
2022-08-17T10:11:57.603Z,41.11
2022-08-17T10:14:46.350Z,40.42
2022-08-17T10:17:21.119Z,40.63
2022-08-17T10:20:29.437Z,40.03
2022-08-17T10:23:13.843Z,39.88
2022-08-17T10:26:07.218Z,40.85
2022-08-17T10:28:46.234Z,39.69
2022-08-17T10:31:38.309Z,39.52
2022-08-17T10:34:41.494Z,39.43
2022-08-17T10:37:47.589Z,39.93
2022-08-17T10:40:29.785Z,39.78
2022-08-17T10:43:15.158Z,39.16
2022-08-17T10:46:30.339Z,38.71
2022-08-17T10:49:44.251Z,37.41
2022-08-17T10:52:20.675Z,36.36
2022-08-17T10:55:14.512Z,37.27
2022-08-17T10:57:46.714Z,37.70
2022-08-17T11:00:27.729Z,36.65
2022-08-17T11:02:57.053Z,37.53
2022-08-17T11:05:44.088Z,35.94
2022-08-17T11:08:51.468Z,36.26
2022-08-17T11:12:06.069Z,36.90
2022-08-17T11:15:00.804Z,36.08
2022-08-17T11:18:15.197Z,35.99
2022-08-17T11:21:12.969Z,36.47
2022-08-17T11:24:26.909Z,36.12
2022-08-17T11:27:28.727Z,36.67
2022-08-17T11:30:03.090Z,36.63
2022-08-17T11:32:54.391Z,36.74
2022-08-17T11:35:22.095Z,36.75
2022-08-17T11:38:07.767Z,36.37
2022-08-17T11:40:51.573Z,36.04
2022-08-17T11:43:42.807Z,35.89
2022-08-17T11:46:40.058Z,35.64
2022-08-17T11:49:22.915Z,36.17
2022-08-17T11:52:02.160Z,36.33
2022-08-17T11:54:43.247Z,34.54
2022-08-17T11:57:27.714Z,34.09
2022-08-17T11:59:56.249Z,33.21
2022-08-17T12:03:26.018Z,33.84
2022-08-17T12:06:49.685Z,34.11
2022-08-17T12:09:25.048Z,34.05
2022-08-17T12:12:34.524Z,34.35
2022-08-17T12:15:10.465Z,34.18
2022-08-17T12:17:41.134Z,33.49
2022-08-17T12:20:29.885Z,34.54
2022-08-17T12:27:03.463Z,34.28
2022-08-17T12:29:38.845Z,34.10
2022-08-17T12:32:15.593Z,34.43
2022-08-17T12:34:45.315Z,34.79
2022-08-17T12:37:26.885Z,35.42
2022-08-17T12:40:07.653Z,34.48
2022-08-17T12:42:39.623Z,34.10
2022-08-17T12:45:33.697Z,33.88
2022-08-17T12:48:09.804Z,32.69
2022-08-17T12:50:44.805Z,32.99
2022-08-17T12:53:24.092Z,32.64
2022-08-17T12:59:32.624Z,32.62
2022-08-17T13:02:01.278Z,33.30
2022-08-17T13:04:29.725Z,33.14
2022-08-17T13:06:59.937Z,33.32
2022-08-17T13:09:36.038Z,33.51
2022-08-17T13:12:08.704Z,32.96
2022-08-17T13:14:35.996Z,33.33
2022-08-17T13:17:07.158Z,31.83
2022-08-17T13:19:49.525Z,31.67
2022-08-17T13:22:22.655Z,32.34
2022-08-17T13:24:54.821Z,31.68
2022-08-17T13:27:25.949Z,31.58
2022-08-17T13:30:08.079Z,31.17
2022-08-17T13:32:44.312Z,32.76
2022-08-17T13:35:39.435Z,34.51
2022-08-17T13:38:32.632Z,34.67
2022-08-17T13:40:59.860Z,35.82
2022-08-17T13:43:46.475Z,35.95
2022-08-17T13:46:30.357Z,36.88
2022-08-17T13:49:06.025Z,36.97
2022-08-17T13:51:44.519Z,37.39
2022-08-17T13:54:35.415Z,36.71
2022-08-17T13:57:19.533Z,37.51
2022-08-17T13:59:54.867Z,36.30
2022-08-17T14:02:25.999Z,36.28
2022-08-17T14:04:57.590Z,37.44
2022-08-17T14:07:34.845Z,36.22
2022-08-17T14:10:17.797Z,36.06
2022-08-17T14:12:46.103Z,36.67
2022-08-17T14:15:18.832Z,35.96
2022-08-17T14:17:47.556Z,35.69
2022-08-17T14:20:17.328Z,35.19
2022-08-17T14:22:48.758Z,35.08
2022-08-17T14:25:23.139Z,35.26
2022-08-17T14:27:53.793Z,36.13
2022-08-17T14:30:28.964Z,35.75
2022-08-17T14:32:59.670Z,35.47
2022-08-17T14:35:27.143Z,35.53
2022-08-17T14:37:54.460Z,36.12
2022-08-17T14:40:24.367Z,36.53
2022-08-17T14:42:53.960Z,36.71
2022-08-17T14:45:31.723Z,37.50
2022-08-17T14:48:01.379Z,38.05
2022-08-17T14:50:28.619Z,38.02
2022-08-17T14:52:55.835Z,38.52
2022-08-17T14:55:25.415Z,39.06
2022-08-17T14:57:53.073Z,38.08
2022-08-17T15:00:20.406Z,38.66
2022-08-17T15:02:52.914Z,39.18
2022-08-17T15:05:27.526Z,40.00
2022-08-17T15:07:54.707Z,39.23
2022-08-17T15:10:22.514Z,39.31
2022-08-17T15:12:50.262Z,39.38
2022-08-17T15:15:18.492Z,38.20
2022-08-17T15:17:46.253Z,38.15
2022-08-17T15:20:27.620Z,38.57
2022-08-17T15:26:54.323Z,39.65
2022-08-17T15:29:21.526Z,39.29
2022-08-17T15:31:48.774Z,39.47
2022-08-17T15:34:16.049Z,39.51
2022-08-17T15:36:49.261Z,39.03
2022-08-17T15:39:19.667Z,39.27
2022-08-17T15:41:47.123Z,39.44
2022-08-17T15:44:32.704Z,39.48
2022-08-17T15:47:02.446Z,40.11
2022-08-17T15:49:29.664Z,39.91
2022-08-17T15:51:56.822Z,40.58
2022-08-17T15:54:23.975Z,40.38
2022-08-17T15:56:51.409Z,40.38
2022-08-17T15:59:18.563Z,40.46
2022-08-17T16:03:01.430Z,40.58
2022-08-17T16:04:33.115Z,40.39
2022-08-17T16:07:00.725Z,40.48
2022-08-17T16:09:28.424Z,40.83
2022-08-17T16:11:56.498Z,40.68
2022-08-17T16:14:25.349Z,41.03
2022-08-17T16:17:04.286Z,41.52
2022-08-17T16:19:33.255Z,41.72
2022-08-17T16:22:00.519Z,41.67
2022-08-17T16:24:28.268Z,42.16
2022-08-17T16:26:55.531Z,40.66
2022-08-17T16:29:23.346Z,42.36
2022-08-17T16:31:51.155Z,42.36
2022-08-17T16:34:18.794Z,43.30
2022-08-17T16:36:55.473Z,43.13
2022-08-17T16:39:28.156Z,43.07
2022-08-17T16:41:56.609Z,43.16
2022-08-17T16:44:24.620Z,43.14
2022-08-17T16:46:51.802Z,43.18
2022-08-17T16:49:24.472Z,43.61
2022-08-17T16:52:10.036Z,43.30
2022-08-17T16:54:44.382Z,43.75
2022-08-17T16:57:16.027Z,43.61
2022-08-17T16:59:48.132Z,44.34
2022-08-17T17:02:31.565Z,44.62
2022-08-17T17:05:13.680Z,44.41
2022-08-17T17:08:08.702Z,44.71
2022-08-17T17:11:03.586Z,44.68
2022-08-17T17:13:57.994Z,45.20
2022-08-17T17:16:40.207Z,45.16
2022-08-17T17:19:34.468Z,45.31
2022-08-17T17:22:13.859Z,45.97
2022-08-17T17:25:14.781Z,45.45
2022-08-17T17:28:05.979Z,45.77
2022-08-17T17:31:02.084Z,45.81
2022-08-17T17:33:41.180Z,46.06
2022-08-17T17:36:37.400Z,46.66
2022-08-17T17:39:25.661Z,46.94
2022-08-17T17:42:00.179Z,47.31
2022-08-17T17:44:46.891Z,47.64
2022-08-17T17:47:20.590Z,47.96
2022-08-17T17:49:47.852Z,48.11
2022-08-17T17:52:48.621Z,47.82
2022-08-17T17:55:53.741Z,48.01
2022-08-17T17:58:42.924Z,48.28
2022-08-17T18:01:54.205Z,48.38
2022-08-17T18:04:43.405Z,48.57
2022-08-17T18:07:42.728Z,48.38
2022-08-17T18:10:30.367Z,48.51
2022-08-17T18:13:17.382Z,48.47
2022-08-17T18:15:52.438Z,48.37
2022-08-17T18:18:38.167Z,48.51
2022-08-17T18:21:16.846Z,48.30
2022-08-17T18:23:52.312Z,48.56
2022-08-17T18:26:43.790Z,48.99
2022-08-17T18:29:41.614Z,48.86
2022-08-17T18:32:24.831Z,48.51
2022-08-17T18:35:01.829Z,48.67
2022-08-17T18:38:19.959Z,48.54
2022-08-17T18:41:00.635Z,48.78
2022-08-17T18:43:53.002Z,49.09
2022-08-17T18:46:37.645Z,49.03
2022-08-17T18:49:28.148Z,49.23
2022-08-17T18:52:26.063Z,49.09
2022-08-17T18:55:24.141Z,49.50
2022-08-17T18:57:59.635Z,49.53
2022-08-17T19:00:39.394Z,49.85
2022-08-17T19:03:16.103Z,49.70
2022-08-17T19:06:15.958Z,50.02
2022-08-17T19:08:43.307Z,50.29
2022-08-17T19:11:21.338Z,50.11
2022-08-17T19:14:08.949Z,50.23
2022-08-17T19:16:43.930Z,50.55
2022-08-17T19:19:27.155Z,50.77
2022-08-17T19:22:28.735Z,50.80
2022-08-17T19:25:21.891Z,51.36
2022-08-17T19:27:57.286Z,51.36
2022-08-17T19:30:25.752Z,51.79
2022-08-17T19:32:53.007Z,52.13
2022-08-17T19:35:24.774Z,52.35
2022-08-17T19:38:03.234Z,52.30
2022-08-17T19:41:00.601Z,52.65
2022-08-17T19:44:15.936Z,52.54
2022-08-17T19:47:06.387Z,52.71
2022-08-17T19:49:48.994Z,52.49
2022-08-17T19:52:37.580Z,52.83
2022-08-17T19:55:20.574Z,53.16
2022-08-17T19:58:03.337Z,53.11
2022-08-17T20:00:34.664Z,53.45
2022-08-17T20:03:16.208Z,53.59
2022-08-17T20:09:18.432Z,53.63
2022-08-17T20:11:55.498Z,53.67
2022-08-17T20:14:37.953Z,53.20
2022-08-17T20:17:05.934Z,53.38
2022-08-17T20:19:50.367Z,53.51
2022-08-17T20:22:51.869Z,53.35
2022-08-17T20:25:44.652Z,53.75
2022-08-17T20:28:30.918Z,53.14
2022-08-17T20:30:59.343Z,53.25
2022-08-17T20:33:37.118Z,52.93
2022-08-17T20:36:18.074Z,52.49
2022-08-17T20:38:58.093Z,52.21
2022-08-17T20:41:30.487Z,52.19
2022-08-17T20:43:57.928Z,52.53
2022-08-17T20:46:37.450Z,52.31
2022-08-17T20:49:21.923Z,52.88
2022-08-17T20:52:01.601Z,52.93
2022-08-17T20:54:42.793Z,53.02
2022-08-17T20:57:29.993Z,52.82
2022-08-17T21:00:09.678Z,53.16
2022-08-17T21:02:37.262Z,53.01
2022-08-17T21:05:34.309Z,52.70
2022-08-17T21:08:12.503Z,52.44
2022-08-17T21:10:41.822Z,52.33
2022-08-17T21:13:09.373Z,52.46
2022-08-17T21:15:43.650Z,52.68
2022-08-17T21:18:11.248Z,52.49
2022-08-17T21:21:04.698Z,52.22
2022-08-17T21:23:50.309Z,52.11
2022-08-17T21:26:50.351Z,51.93
2022-08-17T21:29:33.820Z,51.92
2022-08-17T21:32:05.533Z,52.14
2022-08-17T21:34:43.836Z,52.02
2022-08-17T21:37:23.375Z,52.23
2022-08-17T21:40:11.321Z,52.28
2022-08-17T21:42:55.848Z,52.46
2022-08-17T21:45:31.956Z,52.44
2022-08-17T21:48:10.795Z,52.64
2022-08-17T21:50:39.751Z,52.45
2022-08-17T21:53:08.692Z,52.71
2022-08-17T21:55:37.351Z,52.66
2022-08-17T21:58:36.827Z,52.41
2022-08-17T22:01:20.936Z,52.54
2022-08-17T22:04:03.051Z,52.46
2022-08-17T22:06:39.758Z,52.30
2022-08-17T22:09:10.325Z,52.35
2022-08-17T22:12:00.909Z,52.33
2022-08-17T22:14:52.154Z,52.48
2022-08-17T22:17:27.240Z,52.15
2022-08-17T22:19:59.672Z,52.30
2022-08-17T22:22:32.539Z,52.15
2022-08-17T22:25:05.851Z,52.09
2022-08-17T22:27:51.460Z,51.99
2022-08-17T22:30:34.580Z,51.98
2022-08-17T22:33:37.413Z,51.91
2022-08-17T22:36:23.259Z,51.78
2022-08-17T22:38:53.984Z,51.83
2022-08-17T22:41:39.807Z,51.66
2022-08-17T22:44:32.146Z,51.58
2022-08-17T22:47:22.360Z,51.60
2022-08-17T22:49:56.909Z,51.58
2022-08-17T22:52:38.164Z,51.43
2022-08-17T22:55:13.977Z,51.40
2022-08-17T22:57:47.935Z,51.20
2022-08-17T23:00:31.862Z,51.06
2022-08-17T23:03:11.663Z,51.43
2022-08-17T23:05:41.420Z,51.67
2022-08-17T23:08:09.288Z,51.65
2022-08-17T23:10:36.947Z,51.73
2022-08-17T23:13:04.636Z,51.45
2022-08-17T23:15:32.181Z,51.41
2022-08-17T23:18:01.010Z,51.41
2022-08-17T23:20:28.517Z,52.24
2022-08-17T23:22:56.168Z,52.09
2022-08-17T23:25:27.920Z,52.12
2022-08-17T23:27:56.714Z,52.02
2022-08-17T23:30:24.693Z,51.77
2022-08-17T23:32:54.323Z,52.26
2022-08-17T23:35:40.097Z,52.04
2022-08-17T23:38:10.201Z,52.41
2022-08-17T23:40:39.342Z,51.94
2022-08-17T23:43:11.477Z,52.05
2022-08-17T23:45:54.252Z,52.45
2022-08-17T23:48:28.611Z,53.20
2022-08-17T23:51:08.034Z,53.18
2022-08-17T23:53:39.330Z,53.13
2022-08-17T23:56:10.381Z,53.11
2022-08-17T23:58:43.612Z,53.41
